sensor_id;sensor_type;location;lat;lon;timestamp;pressure;altitude;pressure_sealevel;temperature;humidity
62524;BME280;53689;56.878;60.672;2023-06-04T00:00:25;97951.63;;;27.82;38.26
62524;BME280;53689;56.878;60.672;2023-06-04T00:02:52;97944.53;;;27.81;38.08
62524;BME280;53689;56.878;60.672;2023-06-04T00:05:20;97944.53;;;27.81;37.96
62524;BME280;53689;56.878;60.672;2023-06-04T00:07:47;97946.13;;;27.77;38.13
62524;BME280;53689;56.878;60.672;2023-06-04T00:10:16;97951.28;;;27.78;38.11
62524;BME280;53689;56.878;60.672;2023-06-04T00:12:43;97952.28;;;27.89;38.07
62524;BME280;53689;56.878;60.672;2023-06-04T00:15:10;97958.47;;;27.84;38.17
62524;BME280;53689;56.878;60.672;2023-06-04T00:17:37;97959.94;;;27.92;37.69
62524;BME280;53689;56.878;60.672;2023-06-04T00:20:05;97975.63;;;28.02;37.94
62524;BME280;53689;56.878;60.672;2023-06-04T00:22:32;97963.66;;;28.03;37.84
62524;BME280;53689;56.878;60.672;2023-06-04T00:25:00;97964.00;;;28.07;37.93
62524;BME280;53689;56.878;60.672;2023-06-04T00:27:29;97961.84;;;28.09;37.74
62524;BME280;53689;56.878;60.672;2023-06-04T00:29:56;97957.06;;;28.16;37.44
62524;BME280;53689;56.878;60.672;2023-06-04T00:32:23;97970.13;;;28.31;37.34
62524;BME280;53689;56.878;60.672;2023-06-04T00:34:51;97969.09;;;28.55;36.82
62524;BME280;53689;56.878;60.672;2023-06-04T00:37:18;97970.97;;;28.54;36.82
62524;BME280;53689;56.878;60.672;2023-06-04T00:39:45;97974.84;;;28.58;36.86
62524;BME280;53689;56.878;60.672;2023-06-04T00:42:12;97980.91;;;28.43;37.04
62524;BME280;53689;56.878;60.672;2023-06-04T00:44:41;97982.06;;;28.30;37.32
62524;BME280;53689;56.878;60.672;2023-06-04T00:47:08;97977.16;;;28.27;37.41
62524;BME280;53689;56.878;60.672;2023-06-04T00:49:35;97984.31;;;29.17;35.86
62524;BME280;53689;56.878;60.672;2023-06-04T00:52:02;97985.97;;;29.18;35.76
62524;BME280;53689;56.878;60.672;2023-06-04T00:54:30;97990.53;;;28.51;37.16
62524;BME280;53689;56.878;60.672;2023-06-04T00:56:57;97989.72;;;28.16;36.04
62524;BME280;53689;56.878;60.672;2023-06-04T00:59:24;97998.13;;;27.97;38.13
62524;BME280;53689;56.878;60.672;2023-06-04T01:01:54;97998.53;;;27.89;37.41
62524;BME280;53689;56.878;60.672;2023-06-04T01:04:25;97989.38;;;27.78;38.74
62524;BME280;53689;56.878;60.672;2023-06-04T01:06:55;97992.59;;;27.75;38.95
62524;BME280;53689;56.878;60.672;2023-06-04T01:09:24;97997.53;;;27.78;39.05
62524;BME280;53689;56.878;60.672;2023-06-04T01:11:52;97996.50;;;27.79;38.90
62524;BME280;53689;56.878;60.672;2023-06-04T01:14:20;97996.63;;;27.73;39.34
62524;BME280;53689;56.878;60.672;2023-06-04T01:16:49;97988.22;;;27.57;39.59
62524;BME280;53689;56.878;60.672;2023-06-04T01:19:22;97994.03;;;27.08;39.69
62524;BME280;53689;56.878;60.672;2023-06-04T01:21:58;97995.09;;;27.07;40.80
62524;BME280;53689;56.878;60.672;2023-06-04T01:24:27;97994.63;;;27.10;40.92
62524;BME280;53689;56.878;60.672;2023-06-04T01:26:54;97996.94;;;27.18;39.81
62524;BME280;53689;56.878;60.672;2023-06-04T01:29:22;98005.25;;;27.11;39.48
62524;BME280;53689;56.878;60.672;2023-06-04T01:31:49;98003.94;;;27.14;39.01
62524;BME280;53689;56.878;60.672;2023-06-04T01:34:22;98002.88;;;27.15;38.77
62524;BME280;53689;56.878;60.672;2023-06-04T01:36:49;98000.50;;;27.19;38.76
62524;BME280;53689;56.878;60.672;2023-06-04T01:39:16;98004.03;;;27.19;40.24
62524;BME280;53689;56.878;60.672;2023-06-04T01:41:43;98005.03;;;27.13;40.70
62524;BME280;53689;56.878;60.672;2023-06-04T01:44:11;98006.78;;;27.07;41.18
62524;BME280;53689;56.878;60.672;2023-06-04T01:46:38;98003.41;;;27.00;41.99
62524;BME280;53689;56.878;60.672;2023-06-04T01:49:05;98004.28;;;27.18;40.57
62524;BME280;53689;56.878;60.672;2023-06-04T01:51:34;97998.78;;;27.00;41.50
62524;BME280;53689;56.878;60.672;2023-06-04T01:54:01;98001.34;;;27.07;41.20
62524;BME280;53689;56.878;60.672;2023-06-04T01:56:28;97999.59;;;27.13;40.77
62524;BME280;53689;56.878;60.672;2023-06-04T01:58:55;98000.53;;;27.07;39.87
62524;BME280;53689;56.878;60.672;2023-06-04T02:01:23;98006.06;;;27.41;38.94
62524;BME280;53689;56.878;60.672;2023-06-04T02:03:50;98004.13;;;27.65;39.53
62524;BME280;53689;56.878;60.672;2023-06-04T02:06:17;97999.00;;;27.69;36.63
62524;BME280;53689;56.878;60.672;2023-06-04T02:08:46;97998.72;;;27.53;36.31
62524;BME280;53689;56.878;60.672;2023-06-04T02:11:13;98001.81;;;27.74;39.26
62524;BME280;53689;56.878;60.672;2023-06-04T02:13:41;97997.88;;;27.82;37.80
62524;BME280;53689;56.878;60.672;2023-06-04T02:16:08;98004.88;;;27.78;39.18
62524;BME280;53689;56.878;60.672;2023-06-04T02:18:36;98002.00;;;27.84;39.18
62524;BME280;53689;56.878;60.672;2023-06-04T02:21:04;98004.16;;;27.82;36.23
62524;BME280;53689;56.878;60.672;2023-06-04T02:23:31;98004.88;;;27.78;38.55
62524;BME280;53689;56.878;60.672;2023-06-04T02:26:00;98003.25;;;27.94;38.78
62524;BME280;53689;56.878;60.672;2023-06-04T02:28:28;98006.53;;;27.79;36.30
62524;BME280;53689;56.878;60.672;2023-06-04T02:30:56;98004.88;;;27.95;39.45
62524;BME280;53689;56.878;60.672;2023-06-04T02:33:23;98004.22;;;27.88;38.25
62524;BME280;53689;56.878;60.672;2023-06-04T02:35:51;98006.69;;;27.72;39.46
62524;BME280;53689;56.878;60.672;2023-06-04T02:38:18;98015.41;;;27.74;39.79
62524;BME280;53689;56.878;60.672;2023-06-04T02:40:45;98009.75;;;27.47;39.55
62524;BME280;53689;56.878;60.672;2023-06-04T02:43:14;98012.53;;;27.64;37.75
62524;BME280;53689;56.878;60.672;2023-06-04T02:45:41;98016.84;;;27.77;36.35
62524;BME280;53689;56.878;60.672;2023-06-04T02:48:08;98013.28;;;27.76;36.82
62524;BME280;53689;56.878;60.672;2023-06-04T02:50:35;98012.16;;;27.89;39.30
62524;BME280;53689;56.878;60.672;2023-06-04T02:53:02;98015.53;;;27.79;36.68
62524;BME280;53689;56.878;60.672;2023-06-04T02:55:29;98012.31;;;27.82;37.13
62524;BME280;53689;56.878;60.672;2023-06-04T02:57:57;98001.16;;;27.67;37.48
62524;BME280;53689;56.878;60.672;2023-06-04T03:00:25;98007.50;;;27.73;38.32
62524;BME280;53689;56.878;60.672;2023-06-04T03:02:53;98007.38;;;27.79;37.42
62524;BME280;53689;56.878;60.672;2023-06-04T03:05:20;98003.19;;;27.89;36.39
62524;BME280;53689;56.878;60.672;2023-06-04T03:07:48;98001.25;;;27.89;36.28
62524;BME280;53689;56.878;60.672;2023-06-04T03:10:15;98001.59;;;27.93;36.46
62524;BME280;53689;56.878;60.672;2023-06-04T03:12:43;98007.09;;;27.98;36.14
62524;BME280;53689;56.878;60.672;2023-06-04T03:15:10;97996.66;;;28.07;38.21
62524;BME280;53689;56.878;60.672;2023-06-04T03:17:39;98000.84;;;28.15;37.90
62524;BME280;53689;56.878;60.672;2023-06-04T03:20:07;98000.28;;;28.13;38.02
62524;BME280;53689;56.878;60.672;2023-06-04T03:22:35;97997.19;;;28.21;38.26
62524;BME280;53689;56.878;60.672;2023-06-04T03:25:02;97993.38;;;28.22;38.36
62524;BME280;53689;56.878;60.672;2023-06-04T03:27:30;97999.53;;;28.00;38.99
62524;BME280;53689;56.878;60.672;2023-06-04T03:29:58;97995.00;;;28.06;38.46
62524;BME280;53689;56.878;60.672;2023-06-04T03:32:26;97996.16;;;28.10;39.30
62524;BME280;53689;56.878;60.672;2023-06-04T03:34:55;97988.25;;;28.08;38.88
62524;BME280;53689;56.878;60.672;2023-06-04T03:37:22;97992.69;;;28.15;37.24
62524;BME280;53689;56.878;60.672;2023-06-04T03:39:49;97992.13;;;28.13;38.07
62524;BME280;53689;56.878;60.672;2023-06-04T03:42:17;97990.31;;;28.01;38.18
62524;BME280;53689;56.878;60.672;2023-06-04T03:44:44;97982.00;;;28.25;38.80
62524;BME280;53689;56.878;60.672;2023-06-04T03:47:13;97986.06;;;28.22;38.56
62524;BME280;53689;56.878;60.672;2023-06-04T03:49:41;97991.38;;;28.17;37.65
62524;BME280;53689;56.878;60.672;2023-06-04T03:52:10;97995.34;;;28.09;38.71
62524;BME280;53689;56.878;60.672;2023-06-04T03:54:39;97991.22;;;28.24;36.73
62524;BME280;53689;56.878;60.672;2023-06-04T03:57:06;97989.81;;;28.04;38.80
62524;BME280;53689;56.878;60.672;2023-06-04T03:59:33;97983.94;;;28.13;38.75
62524;BME280;53689;56.878;60.672;2023-06-04T04:02:01;97990.31;;;28.01;38.89
62524;BME280;53689;56.878;60.672;2023-06-04T04:04:28;97978.75;;;28.11;38.63
62524;BME280;53689;56.878;60.672;2023-06-04T04:06:56;97981.56;;;27.99;36.51
62524;BME280;53689;56.878;60.672;2023-06-04T04:09:25;97981.66;;;28.21;38.37
62524;BME280;53689;56.878;60.672;2023-06-04T04:11:52;97982.31;;;28.29;37.04
62524;BME280;53689;56.878;60.672;2023-06-04T04:14:19;97987.25;;;28.15;36.00
62524;BME280;53689;56.878;60.672;2023-06-04T04:16:46;97986.88;;;28.23;37.44
62524;BME280;53689;56.878;60.672;2023-06-04T04:19:14;97993.94;;;28.24;38.22
62524;BME280;53689;56.878;60.672;2023-06-04T04:21:42;97988.88;;;28.16;36.33
62524;BME280;53689;56.878;60.672;2023-06-04T04:24:09;97984.28;;;28.16;37.14
62524;BME280;53689;56.878;60.672;2023-06-04T04:26:38;97985.13;;;28.34;37.87
62524;BME280;53689;56.878;60.672;2023-06-04T04:29:05;97982.25;;;28.23;38.21
62524;BME280;53689;56.878;60.672;2023-06-04T04:31:33;97974.94;;;28.12;37.61
62524;BME280;53689;56.878;60.672;2023-06-04T04:34:00;97980.50;;;28.17;37.40
62524;BME280;53689;56.878;60.672;2023-06-04T04:36:28;97981.91;;;28.37;37.85
62524;BME280;53689;56.878;60.672;2023-06-04T04:38:55;97977.19;;;28.32;38.19
62524;BME280;53689;56.878;60.672;2023-06-04T04:41:29;97977.16;;;28.27;36.50
62524;BME280;53689;56.878;60.672;2023-06-04T04:44:02;97973.66;;;28.32;38.00
62524;BME280;53689;56.878;60.672;2023-06-04T04:46:29;97976.69;;;28.35;38.19
62524;BME280;53689;56.878;60.672;2023-06-04T04:48:57;97971.69;;;28.27;37.08
62524;BME280;53689;56.878;60.672;2023-06-04T04:51:24;97975.03;;;28.34;38.43
62524;BME280;53689;56.878;60.672;2023-06-04T04:53:52;97971.72;;;28.49;38.18
62524;BME280;53689;56.878;60.672;2023-06-04T04:56:20;97973.81;;;28.25;36.60
62524;BME280;53689;56.878;60.672;2023-06-04T04:58:48;97976.69;;;28.35;37.85
62524;BME280;53689;56.878;60.672;2023-06-04T05:01:17;97977.19;;;28.32;37.25
62524;BME280;53689;56.878;60.672;2023-06-04T05:03:45;97978.31;;;28.53;36.62
62524;BME280;53689;56.878;60.672;2023-06-04T05:06:14;97980.53;;;28.57;36.79
62524;BME280;53689;56.878;60.672;2023-06-04T05:08:42;97979.09;;;28.49;35.86
62524;BME280;53689;56.878;60.672;2023-06-04T05:11:11;97974.44;;;28.49;36.42
62524;BME280;53689;56.878;60.672;2023-06-04T05:13:39;97973.69;;;28.54;36.44
62524;BME280;53689;56.878;60.672;2023-06-04T05:16:09;97973.88;;;28.47;35.93
62524;BME280;53689;56.878;60.672;2023-06-04T05:18:40;97960.81;;;28.66;35.45
62524;BME280;53689;56.878;60.672;2023-06-04T05:21:10;97956.34;;;28.60;34.88
62524;BME280;53689;56.878;60.672;2023-06-04T05:23:41;97951.91;;;28.54;34.91
62524;BME280;53689;56.878;60.672;2023-06-04T05:26:08;97957.38;;;28.76;35.50
62524;BME280;53689;56.878;60.672;2023-06-04T05:28:35;97957.72;;;29.02;35.47
62524;BME280;53689;56.878;60.672;2023-06-04T05:31:03;97971.88;;;28.82;35.43
62524;BME280;53689;56.878;60.672;2023-06-04T05:33:33;97971.00;;;28.76;35.48
62524;BME280;53689;56.878;60.672;2023-06-04T05:36:06;97964.97;;;28.74;35.19
62524;BME280;53689;56.878;60.672;2023-06-04T05:38:40;97969.53;;;28.69;34.57
62524;BME280;53689;56.878;60.672;2023-06-04T05:41:10;97965.41;;;28.66;34.25
62524;BME280;53689;56.878;60.672;2023-06-04T05:43:39;97955.97;;;28.91;34.41
62524;BME280;53689;56.878;60.672;2023-06-04T05:46:07;97966.28;;;28.89;35.17
62524;BME280;53689;56.878;60.672;2023-06-04T05:48:35;97961.25;;;28.80;34.83
62524;BME280;53689;56.878;60.672;2023-06-04T05:51:02;97956.19;;;28.89;34.56
62524;BME280;53689;56.878;60.672;2023-06-04T05:53:32;97952.50;;;28.78;34.33
62524;BME280;53689;56.878;60.672;2023-06-04T05:55:59;97956.44;;;28.65;34.42
62524;BME280;53689;56.878;60.672;2023-06-04T05:58:26;97944.28;;;28.73;34.00
62524;BME280;53689;56.878;60.672;2023-06-04T06:00:54;97946.47;;;28.93;34.20
62524;BME280;53689;56.878;60.672;2023-06-04T06:03:21;97944.97;;;29.08;33.71
62524;BME280;53689;56.878;60.672;2023-06-04T06:05:49;97935.41;;;28.83;34.46
62524;BME280;53689;56.878;60.672;2023-06-04T06:08:17;97941.72;;;29.11;34.47
62524;BME280;53689;56.878;60.672;2023-06-04T06:10:46;97934.13;;;29.13;33.97
62524;BME280;53689;56.878;60.672;2023-06-04T06:13:13;97943.97;;;29.14;33.93
62524;BME280;53689;56.878;60.672;2023-06-04T06:15:41;97932.84;;;28.93;34.51
62524;BME280;53689;56.878;60.672;2023-06-04T06:18:08;97935.28;;;28.95;34.29
62524;BME280;53689;56.878;60.672;2023-06-04T06:20:35;97932.41;;;29.29;33.79
62524;BME280;53689;56.878;60.672;2023-06-04T06:23:05;97927.06;;;29.12;33.52
62524;BME280;53689;56.878;60.672;2023-06-04T06:25:33;97924.50;;;29.05;33.85
62524;BME280;53689;56.878;60.672;2023-06-04T06:28:07;97929.50;;;29.14;33.95
62524;BME280;53689;56.878;60.672;2023-06-04T06:30:35;97923.81;;;29.15;33.52
62524;BME280;53689;56.878;60.672;2023-06-04T06:33:03;97923.22;;;29.41;33.05
62524;BME280;53689;56.878;60.672;2023-06-04T06:35:31;97914.34;;;29.23;33.66
62524;BME280;53689;56.878;60.672;2023-06-04T06:37:59;97924.25;;;29.07;33.81
62524;BME280;53689;56.878;60.672;2023-06-04T06:40:26;97915.94;;;29.46;32.97
62524;BME280;53689;56.878;60.672;2023-06-04T06:42:54;97915.88;;;29.41;33.03
62524;BME280;53689;56.878;60.672;2023-06-04T06:45:22;97926.72;;;29.08;33.55
62524;BME280;53689;56.878;60.672;2023-06-04T06:47:50;97914.75;;;29.37;33.32
62524;BME280;53689;56.878;60.672;2023-06-04T06:50:18;97923.47;;;29.39;32.87
62524;BME280;53689;56.878;60.672;2023-06-04T06:52:45;97928.94;;;29.39;33.26
62524;BME280;53689;56.878;60.672;2023-06-04T06:55:12;97925.22;;;29.23;32.97
62524;BME280;53689;56.878;60.672;2023-06-04T06:57:39;97934.91;;;29.36;33.25
62524;BME280;53689;56.878;60.672;2023-06-04T07:00:07;97929.69;;;29.34;33.00
62524;BME280;53689;56.878;60.672;2023-06-04T07:02:36;97927.25;;;29.33;32.73
62524;BME280;53689;56.878;60.672;2023-06-04T07:05:04;97922.53;;;29.51;32.26
62524;BME280;53689;56.878;60.672;2023-06-04T07:07:31;97926.00;;;29.18;32.53
62524;BME280;53689;56.878;60.672;2023-06-04T07:09:58;97925.94;;;29.41;32.76
62524;BME280;53689;56.878;60.672;2023-06-04T07:12:25;97916.03;;;29.57;31.99
62524;BME280;53689;56.878;60.672;2023-06-04T07:14:53;97916.19;;;29.45;32.37
62524;BME280;53689;56.878;60.672;2023-06-04T07:17:20;97917.44;;;29.59;32.08
62524;BME280;53689;56.878;60.672;2023-06-04T07:19:49;97915.47;;;29.55;32.10
62524;BME280;53689;56.878;60.672;2023-06-04T07:22:16;97902.81;;;29.43;32.35
62524;BME280;53689;56.878;60.672;2023-06-04T07:24:43;97898.81;;;29.24;32.21
62524;BME280;53689;56.878;60.672;2023-06-04T07:27:11;97886.44;;;29.16;31.96
62524;BME280;53689;56.878;60.672;2023-06-04T07:29:38;97891.06;;;29.43;31.81
62524;BME280;53689;56.878;60.672;2023-06-04T07:32:05;97882.56;;;29.39;31.43
62524;BME280;53689;56.878;60.672;2023-06-04T07:34:33;97883.88;;;29.31;31.86
62524;BME280;53689;56.878;60.672;2023-06-04T07:37:01;97888.25;;;29.32;31.88
62524;BME280;53689;56.878;60.672;2023-06-04T07:39:29;97882.41;;;29.46;31.85
62524;BME280;53689;56.878;60.672;2023-06-04T07:41:56;97888.69;;;29.46;31.67
62524;BME280;53689;56.878;60.672;2023-06-04T07:44:23;97893.34;;;29.24;31.86
62524;BME280;53689;56.878;60.672;2023-06-04T07:46:50;97889.34;;;29.31;32.26
62524;BME280;53689;56.878;60.672;2023-06-04T07:49:18;97885.41;;;29.49;31.65
62524;BME280;53689;56.878;60.672;2023-06-04T07:51:45;97873.91;;;29.42;30.92
62524;BME280;53689;56.878;60.672;2023-06-04T07:54:14;97881.59;;;29.45;31.62
62524;BME280;53689;56.878;60.672;2023-06-04T07:56:41;97870.34;;;29.42;31.43
62524;BME280;53689;56.878;60.672;2023-06-04T07:59:08;97868.63;;;29.63;31.65
62524;BME280;53689;56.878;60.672;2023-06-04T08:01:36;97867.50;;;29.59;31.55
62524;BME280;53689;56.878;60.672;2023-06-04T08:04:03;97873.63;;;29.71;31.57
62524;BME280;53689;56.878;60.672;2023-06-04T08:06:30;97869.91;;;29.88;30.87
62524;BME280;53689;56.878;60.672;2023-06-04T08:08:57;97869.72;;;29.62;31.05
62524;BME280;53689;56.878;60.672;2023-06-04T08:11:26;97867.22;;;29.93;30.43
62524;BME280;53689;56.878;60.672;2023-06-04T08:13:53;97870.50;;;29.95;30.47
62524;BME280;53689;56.878;60.672;2023-06-04T08:16:20;97866.50;;;29.70;31.00
62524;BME280;53689;56.878;60.672;2023-06-04T08:18:48;97871.13;;;29.70;31.47
62524;BME280;53689;56.878;60.672;2023-06-04T08:21:24;97867.50;;;29.97;31.06
62524;BME280;53689;56.878;60.672;2023-06-04T08:23:51;97866.50;;;29.70;31.34
62524;BME280;53689;56.878;60.672;2023-06-04T08:26:19;97854.66;;;29.92;30.84
62524;BME280;53689;56.878;60.672;2023-06-04T08:28:48;97848.84;;;30.21;30.63
62524;BME280;53689;56.878;60.672;2023-06-04T08:31:16;97847.00;;;29.94;30.30
62524;BME280;53689;56.878;60.672;2023-06-04T08:33:44;97847.06;;;29.99;30.33
62524;BME280;53689;56.878;60.672;2023-06-04T08:36:12;97844.94;;;29.69;31.00
62524;BME280;53689;56.878;60.672;2023-06-04T08:38:40;97843.28;;;30.06;30.49
62524;BME280;53689;56.878;60.672;2023-06-04T08:41:09;97851.56;;;30.21;30.87
62524;BME280;53689;56.878;60.672;2023-06-04T08:43:39;97842.78;;;30.14;30.31
62524;BME280;53689;56.878;60.672;2023-06-04T08:46:08;97832.84;;;29.97;30.47
62524;BME280;53689;56.878;60.672;2023-06-04T08:48:36;97839.38;;;29.91;30.38
62524;BME280;53689;56.878;60.672;2023-06-04T08:51:05;97833.06;;;29.90;30.61
62524;BME280;53689;56.878;60.672;2023-06-04T08:53:33;97832.41;;;29.73;30.78
62524;BME280;53689;56.878;60.672;2023-06-04T08:56:00;97828.88;;;30.21;30.57
62524;BME280;53689;56.878;60.672;2023-06-04T08:58:28;97823.72;;;30.19;30.70
62524;BME280;53689;56.878;60.672;2023-06-04T09:00:57;97822.56;;;30.10;30.48
62524;BME280;53689;56.878;60.672;2023-06-04T09:03:27;97818.22;;;30.14;30.11
62524;BME280;53689;56.878;60.672;2023-06-04T09:05:54;97809.00;;;29.77;31.06
62524;BME280;53689;56.878;60.672;2023-06-04T09:08:22;97807.34;;;30.19;30.69
62524;BME280;53689;56.878;60.672;2023-06-04T09:10:50;97810.19;;;30.45;30.13
62524;BME280;53689;56.878;60.672;2023-06-04T09:13:17;97808.13;;;30.14;30.46
62524;BME280;53689;56.878;60.672;2023-06-04T09:15:45;97808.97;;;30.25;30.50
62524;BME280;53689;56.878;60.672;2023-06-04T09:18:13;97810.69;;;30.37;29.89
62524;BME280;53689;56.878;60.672;2023-06-04T09:20:41;97810.41;;;30.33;30.52
62524;BME280;53689;56.878;60.672;2023-06-04T09:23:15;97806.53;;;30.29;30.51
62524;BME280;53689;56.878;60.672;2023-06-04T09:25:42;97809.84;;;30.36;30.21
62524;BME280;53689;56.878;60.672;2023-06-04T09:28:09;97810.03;;;30.14;29.94
62524;BME280;53689;56.878;60.672;2023-06-04T09:30:37;97810.25;;;30.71;29.81
62524;BME280;53689;56.878;60.672;2023-06-04T09:33:07;97804.13;;;30.43;30.02
62524;BME280;53689;56.878;60.672;2023-06-04T09:35:35;97795.91;;;30.27;30.38
62524;BME280;53689;56.878;60.672;2023-06-04T09:38:04;97797.81;;;30.27;29.97
62524;BME280;53689;56.878;60.672;2023-06-04T09:40:35;97779.91;;;30.62;29.55
62524;BME280;53689;56.878;60.672;2023-06-04T09:43:02;97782.03;;;30.44;29.61
62524;BME280;53689;56.878;60.672;2023-06-04T09:45:29;97776.56;;;30.44;29.48
62524;BME280;53689;56.878;60.672;2023-06-04T09:47:57;97771.34;;;30.27;30.13
62524;BME280;53689;56.878;60.672;2023-06-04T09:50:25;97772.19;;;30.43;30.02
62524;BME280;53689;56.878;60.672;2023-06-04T09:52:52;97763.31;;;30.84;28.85
62524;BME280;53689;56.878;60.672;2023-06-04T09:55:21;97766.13;;;30.26;30.00
62524;BME280;53689;56.878;60.672;2023-06-04T09:57:49;97762.59;;;30.30;29.91
62524;BME280;53689;56.878;60.672;2023-06-04T10:00:17;97758.81;;;30.52;29.77
62524;BME280;53689;56.878;60.672;2023-06-04T10:02:44;97754.19;;;30.42;29.24
62524;BME280;53689;56.878;60.672;2023-06-04T10:05:12;97750.59;;;30.26;30.31
62524;BME280;53689;56.878;60.672;2023-06-04T10:07:40;97739.94;;;30.35;29.63
62524;BME280;53689;56.878;60.672;2023-06-04T10:10:10;97742.78;;;30.82;28.27
62524;BME280;53689;56.878;60.672;2023-06-04T10:12:39;97746.81;;;30.48;29.88
62524;BME280;53689;56.878;60.672;2023-06-04T10:15:09;97750.09;;;30.50;29.88
62524;BME280;53689;56.878;60.672;2023-06-04T10:17:37;97745.16;;;30.52;29.34
62524;BME280;53689;56.878;60.672;2023-06-04T10:20:06;97734.88;;;30.85;28.28
62524;BME280;53689;56.878;60.672;2023-06-04T10:22:33;97733.75;;;30.81;28.53
62524;BME280;53689;56.878;60.672;2023-06-04T10:25:01;97729.69;;;30.79;29.01
62524;BME280;53689;56.878;60.672;2023-06-04T10:27:28;97724.22;;;30.89;28.41
62524;BME280;53689;56.878;60.672;2023-06-04T10:29:58;97717.09;;;30.67;28.01
62524;BME280;53689;56.878;60.672;2023-06-04T10:32:26;97709.94;;;30.56;29.40
62524;BME280;53689;56.878;60.672;2023-06-04T10:34:54;97712.19;;;30.85;28.17
62524;BME280;53689;56.878;60.672;2023-06-04T10:37:22;97721.19;;;30.70;28.50
62524;BME280;53689;56.878;60.672;2023-06-04T10:39:52;97711.53;;;30.26;29.55
62524;BME280;53689;56.878;60.672;2023-06-04T10:42:20;97718.22;;;30.82;27.87
62524;BME280;53689;56.878;60.672;2023-06-04T10:44:48;97723.94;;;30.85;28.78
62524;BME280;53689;56.878;60.672;2023-06-04T10:47:21;97712.75;;;30.92;27.74
62524;BME280;53689;56.878;60.672;2023-06-04T10:49:49;97705.91;;;31.05;27.83
62524;BME280;53689;56.878;60.672;2023-06-04T10:52:16;97702.63;;;31.03;27.41
62524;BME280;53689;56.878;60.672;2023-06-04T10:54:45;97704.00;;;30.85;27.70
62524;BME280;53689;56.878;60.672;2023-06-04T10:57:13;97700.72;;;30.83;26.81
62524;BME280;53689;56.878;60.672;2023-06-04T10:59:40;97694.72;;;30.81;28.11
62524;BME280;53689;56.878;60.672;2023-06-04T11:02:08;97701.53;;;30.99;27.68
62524;BME280;53689;56.878;60.672;2023-06-04T11:04:37;97697.72;;;30.95;27.16
62524;BME280;53689;56.878;60.672;2023-06-04T11:07:05;97697.97;;;30.83;28.30
62524;BME280;53689;56.878;60.672;2023-06-04T11:09:33;97692.78;;;30.71;28.20
62524;BME280;53689;56.878;60.672;2023-06-04T11:12:01;97688.69;;;30.84;28.06
62524;BME280;53689;56.878;60.672;2023-06-04T11:14:29;97691.69;;;30.72;28.49
62524;BME280;53689;56.878;60.672;2023-06-04T11:16:56;97685.69;;;30.80;27.56
62524;BME280;53689;56.878;60.672;2023-06-04T11:19:23;97676.13;;;30.72;28.29
62524;BME280;53689;56.878;60.672;2023-06-04T11:21:52;97671.47;;;30.78;28.00
62524;BME280;53689;56.878;60.672;2023-06-04T11:24:20;97658.91;;;30.72;28.40
62524;BME280;53689;56.878;60.672;2023-06-04T11:26:48;97650.44;;;30.84;28.20
62524;BME280;53689;56.878;60.672;2023-06-04T11:29:34;97646.88;;;30.73;28.20
62524;BME280;53689;56.878;60.672;2023-06-04T11:32:01;97645.22;;;30.62;28.65
62524;BME280;53689;56.878;60.672;2023-06-04T11:34:29;97644.41;;;30.77;27.74
62524;BME280;53689;56.878;60.672;2023-06-04T11:37:06;97645.81;;;30.74;27.84
62524;BME280;53689;56.878;60.672;2023-06-04T11:39:34;97647.97;;;30.72;28.65
62524;BME280;53689;56.878;60.672;2023-06-04T11:42:03;97650.69;;;30.72;28.75
62524;BME280;53689;56.878;60.672;2023-06-04T11:44:31;97641.97;;;30.75;28.39
62524;BME280;53689;56.878;60.672;2023-06-04T11:46:58;97638.41;;;30.85;27.98
62524;BME280;53689;56.878;60.672;2023-06-04T11:49:25;97636.47;;;31.11;27.67
62524;BME280;53689;56.878;60.672;2023-06-04T11:51:54;97635.66;;;30.95;28.08
62524;BME280;53689;56.878;60.672;2023-06-04T11:54:23;97652.59;;;31.03;27.62
62524;BME280;53689;56.878;60.672;2023-06-04T11:56:50;97658.63;;;30.99;27.85
62524;BME280;53689;56.878;60.672;2023-06-04T11:59:18;97673.91;;;30.95;28.25
62524;BME280;53689;56.878;60.672;2023-06-04T12:01:46;97696.31;;;30.87;28.27
62524;BME280;53689;56.878;60.672;2023-06-04T12:04:13;97725.31;;;30.83;28.42
62524;BME280;53689;56.878;60.672;2023-06-04T12:06:50;97724.16;;;30.63;30.63
62524;BME280;53689;56.878;60.672;2023-06-04T12:09:19;97727.69;;;30.38;31.66
62524;BME280;53689;56.878;60.672;2023-06-04T12:11:48;97728.13;;;30.09;32.11
62524;BME280;53689;56.878;60.672;2023-06-04T12:14:16;97733.41;;;29.77;32.11
62524;BME280;53689;56.878;60.672;2023-06-04T12:16:43;97742.50;;;29.94;32.68
62524;BME280;53689;56.878;60.672;2023-06-04T12:19:11;97731.47;;;29.73;33.00
62524;BME280;53689;56.878;60.672;2023-06-04T12:21:39;97691.34;;;29.25;34.51
62524;BME280;53689;56.878;60.672;2023-06-04T12:24:07;97744.09;;;29.03;34.60
62524;BME280;53689;56.878;60.672;2023-06-04T12:26:34;97786.16;;;28.85;33.29
62524;BME280;53689;56.878;60.672;2023-06-04T12:29:07;97818.28;;;28.83;33.12
62524;BME280;53689;56.878;60.672;2023-06-04T12:31:35;97841.59;;;29.29;32.80
62524;BME280;53689;56.878;60.672;2023-06-04T12:34:03;97851.41;;;29.57;32.76
62524;BME280;53689;56.878;60.672;2023-06-04T12:36:30;97801.22;;;29.58;32.84
62524;BME280;53689;56.878;60.672;2023-06-04T12:38:58;97775.84;;;29.53;32.73
62524;BME280;53689;56.878;60.672;2023-06-04T12:41:25;97773.59;;;29.44;32.89
62524;BME280;53689;56.878;60.672;2023-06-04T12:43:52;97770.53;;;29.41;33.53
62524;BME280;53689;56.878;60.672;2023-06-04T12:46:22;97790.09;;;29.65;34.08
62524;BME280;53689;56.878;60.672;2023-06-04T12:48:49;97781.94;;;29.70;33.75
62524;BME280;53689;56.878;60.672;2023-06-04T12:51:16;97782.41;;;29.24;34.64
62524;BME280;53689;56.878;60.672;2023-06-04T12:53:44;97796.38;;;29.00;36.39